createdAt,value
2023-01-31T00:01:57.595Z,17.23
2023-01-31T00:04:25.652Z,17.52
2023-01-31T00:06:54.272Z,17.30
2023-01-31T00:09:22.726Z,16.73
2023-01-31T00:11:50.313Z,18.98
2023-01-31T00:14:20.798Z,15.75
2023-01-31T00:16:48.813Z,14.73
2023-01-31T00:19:16.955Z,21.63
2023-01-31T00:21:45.535Z,19.63
2023-01-31T00:24:14.859Z,17.95
2023-01-31T00:26:43.119Z,16.27
2023-01-31T00:29:12.354Z,16.65
2023-01-31T00:31:40.439Z,14.50
2023-01-31T00:34:09.032Z,16.40
2023-01-31T00:36:37.908Z,17.75
2023-01-31T00:39:08.079Z,21.60
2023-01-31T00:41:38.638Z,16.77
2023-01-31T00:44:07.534Z,14.27
2023-01-31T00:46:36.470Z,14.43
2023-01-31T00:49:04.971Z,19.60
2023-01-31T00:51:32.819Z,21.10
2023-01-31T00:54:01.467Z,16.25
2023-01-31T00:56:29.580Z,17.73
2023-01-31T00:58:57.806Z,15.30
2023-01-31T01:01:28.531Z,18.40
2023-01-31T01:03:57.773Z,16.77
2023-01-31T01:06:26.237Z,15.65
2023-01-31T01:08:55.698Z,13.17
2023-01-31T01:11:26.418Z,19.33
2023-01-31T01:13:55.273Z,16.13
2023-01-31T01:16:24.316Z,15.82
2023-01-31T01:18:55.462Z,16.10
2023-01-31T01:21:28.423Z,18.60
2023-01-31T01:23:58.649Z,14.32
2023-01-31T01:26:31.818Z,15.68
2023-01-31T01:29:02.062Z,16.27
2023-01-31T01:31:32.518Z,18.67
2023-01-31T01:34:12.355Z,15.53
2023-01-31T01:36:40.712Z,17.48
2023-01-31T01:39:12.223Z,15.43
2023-01-31T01:41:46.536Z,13.75
2023-01-31T01:44:45.341Z,18.52
2023-01-31T01:47:37.664Z,18.63
2023-01-31T01:50:06.460Z,17.38
2023-01-31T01:52:38.562Z,21.90
2023-01-31T01:55:22.578Z,16.60
2023-01-31T01:57:55.450Z,16.42
2023-01-31T02:00:27.581Z,17.77
2023-01-31T02:02:59.056Z,15.27
2023-01-31T02:05:37.482Z,15.00
2023-01-31T02:08:05.751Z,14.80
2023-01-31T02:11:01.510Z,18.02
2023-01-31T02:13:30.440Z,14.63
2023-01-31T02:15:59.208Z,17.77
2023-01-31T02:18:28.875Z,17.33
2023-01-31T02:21:42.749Z,17.33
2023-01-31T02:24:21.659Z,16.48
2023-01-31T02:27:20.215Z,16.30
2023-01-31T02:30:21.049Z,17.73
2023-01-31T02:33:08.090Z,17.15
2023-01-31T02:36:15.558Z,19.17
2023-01-31T02:39:02.949Z,22.77
2023-01-31T02:41:40.873Z,20.00
2023-01-31T02:44:57.601Z,15.15
2023-01-31T02:47:33.635Z,15.80
2023-01-31T02:50:27.887Z,17.42
2023-01-31T02:53:11.453Z,24.83
2023-01-31T02:56:36.748Z,18.77
2023-01-31T02:59:23.254Z,20.45
2023-01-31T03:01:59.906Z,20.85
2023-01-31T03:04:34.474Z,25.20
2023-01-31T03:07:27.315Z,23.08
2023-01-31T03:10:17.196Z,22.43
2023-01-31T03:13:13.196Z,21.70
2023-01-31T03:16:09.126Z,18.73
2023-01-31T03:18:51.660Z,18.48
2023-01-31T03:21:40.478Z,19.70
2023-01-31T03:24:09.467Z,21.17
2023-01-31T03:26:37.502Z,19.38
2023-01-31T03:29:07.029Z,21.45
2023-01-31T03:31:43.114Z,17.75
2023-01-31T03:34:14.357Z,21.20
2023-01-31T03:36:59.794Z,21.57
2023-01-31T03:40:06.045Z,19.95
2023-01-31T03:42:55.812Z,22.08
2023-01-31T03:45:33.761Z,24.15
2023-01-31T03:48:04.386Z,24.90
2023-01-31T03:50:44.049Z,24.37
2023-01-31T03:53:42.702Z,21.85
2023-01-31T03:56:16.821Z,21.38
2023-01-31T03:58:55.303Z,24.02
2023-01-31T04:01:26.528Z,25.08
2023-01-31T04:04:00.629Z,26.67
2023-01-31T04:06:29.188Z,24.13
2023-01-31T04:08:57.019Z,25.20
2023-01-31T04:11:27.365Z,22.23
2023-01-31T04:13:55.396Z,24.63
2023-01-31T04:16:23.893Z,25.50
2023-01-31T04:18:52.168Z,22.77
2023-01-31T04:21:20.131Z,26.90
2023-01-31T04:23:48.193Z,31.63
2023-01-31T04:26:16.366Z,35.22
2023-01-31T04:28:44.143Z,26.87
2023-01-31T04:31:12.555Z,28.25
2023-01-31T04:33:40.275Z,27.20
2023-01-31T04:36:09.093Z,27.67
2023-01-31T04:38:36.757Z,26.30
2023-01-31T04:41:04.915Z,24.27
2023-01-31T04:43:33.125Z,23.67
2023-01-31T04:46:01.213Z,28.67
2023-01-31T04:48:29.993Z,28.27
2023-01-31T04:50:58.121Z,23.80
2023-01-31T04:53:25.871Z,29.33
2023-01-31T04:55:56.897Z,27.02
2023-01-31T04:58:24.766Z,25.73
2023-01-31T05:00:54.690Z,27.52
2023-01-31T05:03:22.871Z,32.85
2023-01-31T05:05:51.985Z,40.83
2023-01-31T05:08:19.838Z,31.90
2023-01-31T05:10:48.667Z,26.52
2023-01-31T05:13:16.459Z,26.58
2023-01-31T05:15:49.861Z,27.88
2023-01-31T05:18:17.635Z,29.97
2023-01-31T05:20:45.816Z,33.55
2023-01-31T05:23:13.972Z,27.77
2023-01-31T05:25:41.837Z,32.20
2023-01-31T05:28:09.904Z,30.48
2023-01-31T05:30:38.040Z,27.00
2023-01-31T05:33:08.659Z,27.30
2023-01-31T05:35:37.965Z,29.00
2023-01-31T05:38:06.319Z,27.73
2023-01-31T05:40:34.742Z,49.47
2023-01-31T05:43:02.299Z,26.60
2023-01-31T05:45:31.562Z,24.65
2023-01-31T05:48:00.097Z,28.83
2023-01-31T05:50:28.568Z,26.30
2023-01-31T05:53:01.822Z,25.92
2023-01-31T05:55:31.177Z,27.90
2023-01-31T05:58:01.566Z,25.80
2023-01-31T06:00:29.786Z,27.33
2023-01-31T06:02:59.685Z,30.33
2023-01-31T06:05:28.126Z,32.33
2023-01-31T06:07:55.951Z,30.93
2023-01-31T06:10:24.227Z,34.50
2023-01-31T06:12:51.910Z,31.00
2023-01-31T06:15:20.137Z,32.20
2023-01-31T06:17:48.016Z,25.98
2023-01-31T06:20:16.264Z,25.60
2023-01-31T06:22:43.994Z,26.40
2023-01-31T06:25:12.068Z,25.52
2023-01-31T06:27:39.558Z,49.67
2023-01-31T06:30:08.474Z,36.28
2023-01-31T06:32:35.980Z,37.57
2023-01-31T06:35:04.797Z,42.35
2023-01-31T06:37:32.913Z,46.60
2023-01-31T06:40:01.111Z,49.17
2023-01-31T06:42:28.725Z,43.65
2023-01-31T06:44:56.749Z,47.37
2023-01-31T06:47:24.625Z,46.63
2023-01-31T06:49:52.715Z,47.00
2023-01-31T06:52:20.510Z,43.60
2023-01-31T06:54:48.530Z,36.08
2023-01-31T06:57:16.215Z,35.43
2023-01-31T06:59:44.383Z,30.80
2023-01-31T07:02:12.652Z,31.90
2023-01-31T07:04:40.732Z,35.85
2023-01-31T07:07:08.680Z,33.47
2023-01-31T07:09:36.808Z,35.77
2023-01-31T07:12:04.910Z,33.25
2023-01-31T07:14:32.971Z,28.42
2023-01-31T07:17:00.727Z,31.60
2023-01-31T07:19:28.926Z,35.75
2023-01-31T07:21:56.403Z,36.17
2023-01-31T07:24:24.403Z,39.35
2023-01-31T07:26:54.789Z,47.47
2023-01-31T07:29:22.821Z,43.03
2023-01-31T07:31:50.377Z,40.45
2023-01-31T07:34:19.435Z,44.13
2023-01-31T07:36:46.948Z,44.67
2023-01-31T07:39:15.137Z,40.10
2023-01-31T07:41:42.759Z,41.88
2023-01-31T07:44:11.033Z,45.15
2023-01-31T07:46:40.253Z,47.33
2023-01-31T07:49:10.708Z,43.15
2023-01-31T07:51:39.405Z,51.95
2023-01-31T07:54:08.239Z,46.42
2023-01-31T07:56:39.077Z,42.58
2023-01-31T07:59:07.235Z,41.03
2023-01-31T08:01:53.516Z,42.35
2023-01-31T08:04:22.854Z,58.25
2023-01-31T08:06:55.444Z,49.90
2023-01-31T08:09:25.556Z,54.30
2023-01-31T08:11:53.354Z,50.40
2023-01-31T08:14:26.230Z,46.58
2023-01-31T08:16:56.043Z,46.15
2023-01-31T08:19:24.286Z,41.20
2023-01-31T08:21:52.972Z,45.03
2023-01-31T08:24:21.763Z,44.80
2023-01-31T08:26:52.564Z,60.53
2023-01-31T08:29:21.549Z,68.00
2023-01-31T08:31:51.810Z,59.72
2023-01-31T08:34:21.827Z,53.15
2023-01-31T08:36:49.933Z,50.00
2023-01-31T08:39:18.354Z,47.78
2023-01-31T08:41:46.687Z,48.65
2023-01-31T08:44:16.335Z,59.13
2023-01-31T08:46:46.132Z,59.72
2023-01-31T08:49:15.610Z,52.93
2023-01-31T08:51:43.602Z,66.45
2023-01-31T08:54:13.256Z,51.67
2023-01-31T08:56:41.204Z,48.38
2023-01-31T08:59:11.471Z,49.50
2023-01-31T09:01:40.711Z,48.33
2023-01-31T09:04:09.960Z,45.38
2023-01-31T09:06:38.156Z,61.70
2023-01-31T09:09:06.684Z,43.60
2023-01-31T09:11:36.308Z,56.20
2023-01-31T09:14:04.350Z,75.50
2023-01-31T09:16:32.780Z,60.28
2023-01-31T09:19:00.904Z,55.67
2023-01-31T09:21:30.100Z,56.75
2023-01-31T09:24:02.677Z,60.25
2023-01-31T09:26:32.254Z,44.40
2023-01-31T09:29:02.074Z,55.08
2023-01-31T09:31:31.189Z,43.80
2023-01-31T09:33:59.616Z,47.67
2023-01-31T09:36:28.624Z,52.63
2023-01-31T09:38:58.301Z,61.53
2023-01-31T09:41:54.024Z,42.85
2023-01-31T09:44:31.252Z,40.33
2023-01-31T09:47:08.187Z,49.58
2023-01-31T09:49:48.998Z,38.78
2023-01-31T09:52:17.184Z,50.13
2023-01-31T09:54:45.728Z,32.55
2023-01-31T09:57:19.121Z,33.60
2023-01-31T10:00:13.973Z,38.30
2023-01-31T10:03:03.084Z,37.78
2023-01-31T10:05:40.869Z,34.27
2023-01-31T10:08:43.076Z,35.60
2023-01-31T10:11:25.837Z,36.13
2023-01-31T10:14:01.545Z,31.63
2023-01-31T10:16:42.043Z,36.10
2023-01-31T10:19:20.141Z,40.97
2023-01-31T10:21:55.742Z,37.45
2023-01-31T10:24:37.227Z,31.23
2023-01-31T10:27:22.204Z,35.55
2023-01-31T10:29:57.960Z,33.45
2023-01-31T10:32:34.567Z,36.03
2023-01-31T10:35:18.423Z,40.53
2023-01-31T10:37:58.253Z,42.45
2023-01-31T10:40:38.862Z,36.88
2023-01-31T10:43:28.038Z,36.55
2023-01-31T10:46:03.850Z,37.77
2023-01-31T10:48:32.424Z,34.55
2023-01-31T10:51:31.782Z,39.45
2023-01-31T10:54:26.862Z,37.95
2023-01-31T10:56:55.464Z,42.47
2023-01-31T10:59:51.031Z,37.27
2023-01-31T11:02:31.351Z,32.08
2023-01-31T11:05:07.128Z,36.90
2023-01-31T11:07:37.480Z,36.28
2023-01-31T11:10:30.848Z,37.97
2023-01-31T11:13:08.568Z,39.87
2023-01-31T11:15:43.489Z,33.72
2023-01-31T11:18:25.148Z,42.58
2023-01-31T11:20:54.710Z,39.45
2023-01-31T11:23:27.490Z,40.67
2023-01-31T11:25:58.015Z,55.37
2023-01-31T11:28:42.742Z,67.13
2023-01-31T11:31:34.591Z,55.25
2023-01-31T11:34:05.872Z,49.05
2023-01-31T11:36:43.794Z,44.50
2023-01-31T11:39:34.258Z,31.73
2023-01-31T11:42:29.495Z,26.70
2023-01-31T11:45:00.174Z,35.95
2023-01-31T11:47:49.678Z,31.67
2023-01-31T11:50:38.775Z,35.97
2023-01-31T11:53:21.675Z,28.13
2023-01-31T11:55:52.823Z,27.33
2023-01-31T11:58:31.646Z,34.22
2023-01-31T12:01:03.420Z,31.10
2023-01-31T12:03:32.780Z,28.45
2023-01-31T12:06:04.289Z,22.67
2023-01-31T12:08:41.833Z,18.90
2023-01-31T12:11:29.653Z,19.20
2023-01-31T12:14:15.305Z,23.33
2023-01-31T12:16:45.311Z,24.30
2023-01-31T12:19:13.484Z,25.93
2023-01-31T12:21:56.269Z,23.98
2023-01-31T12:24:34.540Z,28.42
2023-01-31T12:27:05.559Z,36.28
2023-01-31T12:29:50.542Z,22.63
2023-01-31T12:32:24.697Z,21.33
2023-01-31T12:35:25.203Z,25.48
2023-01-31T12:38:44.497Z,24.65
2023-01-31T12:41:23.930Z,22.35
2023-01-31T12:44:09.982Z,30.02
2023-01-31T12:47:11.354Z,22.43
2023-01-31T12:50:32.181Z,33.88
2023-01-31T12:53:31.981Z,25.98
2023-01-31T12:56:42.642Z,23.95
2023-01-31T12:59:34.521Z,23.02
2023-01-31T13:02:09.006Z,24.10
2023-01-31T13:05:19.692Z,29.40
2023-01-31T13:07:54.836Z,26.00
2023-01-31T13:10:37.644Z,33.03
2023-01-31T13:13:11.738Z,33.05
2023-01-31T13:16:22.647Z,32.57
2023-01-31T13:23:53.366Z,39.83
2023-01-31T13:26:29.273Z,42.38
2023-01-31T13:29:19.465Z,28.95
2023-01-31T13:31:59.739Z,31.37
2023-01-31T13:34:51.488Z,30.30
2023-01-31T13:37:24.534Z,31.42
2023-01-31T13:40:04.285Z,41.05
2023-01-31T13:42:33.868Z,25.73
2023-01-31T13:45:08.327Z,31.87
2023-01-31T13:47:49.167Z,33.08
2023-01-31T13:50:28.884Z,34.75
2023-01-31T13:53:02.617Z,30.63
2023-01-31T13:55:38.554Z,19.35
2023-01-31T13:58:23.764Z,31.53
2023-01-31T14:01:31.014Z,28.27
2023-01-31T14:04:43.253Z,29.08
2023-01-31T14:07:13.233Z,30.63
2023-01-31T14:10:06.081Z,34.40
2023-01-31T14:12:38.354Z,29.87
2023-01-31T14:15:45.477Z,32.03
2023-01-31T14:18:13.461Z,30.45
2023-01-31T14:20:41.996Z,29.45
2023-01-31T14:23:32.229Z,29.95
2023-01-31T14:26:00.845Z,30.00
2023-01-31T14:28:31.856Z,31.30
2023-01-31T14:31:14.527Z,30.98
2023-01-31T14:33:49.659Z,33.20
2023-01-31T14:36:32.629Z,32.67
2023-01-31T14:39:24.209Z,32.73
2023-01-31T14:42:13.976Z,48.95
2023-01-31T14:45:00.408Z,35.25
2023-01-31T14:47:32.626Z,31.48
2023-01-31T14:50:33.638Z,29.15
2023-01-31T14:53:30.083Z,30.13
2023-01-31T14:56:15.783Z,29.38
2023-01-31T14:58:47.541Z,26.67
2023-01-31T15:01:23.050Z,27.23
2023-01-31T15:03:57.596Z,29.02
2023-01-31T15:06:34.831Z,31.43
2023-01-31T15:09:42.647Z,28.15
2023-01-31T15:13:05.756Z,29.95
2023-01-31T15:16:38.632Z,26.55
2023-01-31T15:19:26.571Z,26.88
2023-01-31T15:22:25.058Z,30.20
2023-01-31T15:24:59.311Z,27.65
2023-01-31T15:27:31.082Z,26.77
2023-01-31T15:30:18.566Z,27.08
2023-01-31T15:33:09.967Z,24.45
2023-01-31T15:35:59.696Z,39.30
2023-01-31T15:38:50.664Z,28.35
2023-01-31T15:41:23.134Z,29.67
2023-01-31T15:43:54.481Z,54.35
2023-01-31T15:46:37.223Z,35.63
2023-01-31T15:49:40.320Z,31.27
2023-01-31T15:52:08.548Z,41.60
2023-01-31T15:54:37.221Z,32.53
2023-01-31T15:57:10.099Z,29.48
2023-01-31T15:59:38.676Z,28.20
2023-01-31T16:02:39.572Z,25.60
2023-01-31T16:09:00.822Z,20.90
2023-01-31T16:11:59.423Z,19.52
2023-01-31T16:14:29.890Z,20.38
2023-01-31T16:21:54.928Z,22.73
2023-01-31T16:24:30.173Z,20.77
2023-01-31T16:27:48.562Z,21.13
2023-01-31T16:30:40.994Z,21.98
2023-01-31T16:33:24.976Z,24.33
2023-01-31T16:36:22.649Z,26.52
2023-01-31T16:39:06.826Z,28.42
2023-01-31T16:41:57.192Z,24.67
2023-01-31T16:44:28.180Z,31.83
2023-01-31T16:46:56.521Z,37.73
2023-01-31T16:49:27.145Z,37.17
2023-01-31T16:52:17.865Z,41.42
2023-01-31T16:59:36.814Z,34.90
2023-01-31T17:02:17.323Z,21.37
2023-01-31T17:04:52.736Z,20.83
2023-01-31T17:07:38.110Z,22.17
2023-01-31T17:10:54.220Z,23.75
2023-01-31T17:13:27.143Z,27.10
2023-01-31T17:15:56.377Z,28.47
2023-01-31T17:19:39.325Z,41.30
2023-01-31T17:22:07.236Z,36.47
2023-01-31T17:25:25.144Z,37.80
2023-01-31T17:32:00.214Z,47.87
2023-01-31T17:34:37.381Z,45.83
2023-01-31T17:37:05.545Z,38.45
2023-01-31T17:40:53.709Z,55.00
2023-01-31T17:43:25.682Z,41.95
2023-01-31T17:53:05.038Z,28.58
2023-01-31T17:55:33.425Z,55.03
2023-01-31T17:58:01.220Z,60.03
2023-01-31T18:00:30.722Z,81.47
2023-01-31T18:02:59.075Z,69.00
2023-01-31T18:06:16.804Z,58.17
2023-01-31T18:08:44.786Z,29.55
2023-01-31T18:11:18.789Z,34.35
2023-01-31T18:13:48.977Z,29.00
2023-01-31T18:16:21.903Z,31.73
2023-01-31T18:18:53.167Z,29.67
2023-01-31T18:21:23.551Z,29.00
2023-01-31T18:23:56.021Z,51.13
2023-01-31T18:26:25.866Z,57.07
2023-01-31T18:28:57.063Z,35.13
2023-01-31T18:31:26.083Z,33.20
2023-01-31T18:33:54.244Z,33.05
2023-01-31T18:36:22.826Z,29.42
2023-01-31T18:38:51.687Z,42.30
2023-01-31T18:41:21.844Z,45.03
2023-01-31T18:44:19.305Z,47.95
2023-01-31T18:46:47.582Z,48.60
2023-01-31T18:49:15.610Z,66.18
2023-01-31T18:51:47.080Z,52.17
2023-01-31T18:54:14.883Z,59.45
2023-01-31T18:56:44.094Z,63.10
2023-01-31T18:59:12.543Z,52.45
2023-01-31T19:01:43.156Z,63.58
2023-01-31T19:04:16.653Z,54.70
2023-01-31T19:08:04.086Z,41.30
2023-01-31T19:10:33.519Z,42.35
2023-01-31T19:17:50.958Z,45.50
2023-01-31T19:20:19.216Z,50.43
2023-01-31T19:22:52.384Z,59.45
2023-01-31T19:26:10.795Z,62.15
2023-01-31T19:28:50.778Z,66.10
2023-01-31T19:31:25.842Z,58.30
2023-01-31T19:33:59.504Z,44.27
2023-01-31T19:36:51.881Z,41.15
2023-01-31T19:39:20.630Z,35.40
2023-01-31T19:41:48.708Z,32.85
2023-01-31T19:44:42.276Z,101.05
2023-01-31T19:47:10.313Z,90.93
2023-01-31T19:49:38.761Z,68.07
2023-01-31T19:56:38.810Z,32.65
2023-01-31T19:59:06.977Z,35.13
2023-01-31T20:06:29.963Z,28.73
2023-01-31T20:09:05.244Z,34.05
2023-01-31T20:11:34.908Z,53.65
2023-01-31T20:14:06.435Z,62.60
2023-01-31T20:21:19.387Z,38.55
2023-01-31T20:23:47.509Z,43.88
2023-01-31T20:26:16.923Z,42.00
2023-01-31T20:28:45.091Z,34.58
2023-01-31T20:35:46.821Z,44.75
2023-01-31T20:38:17.557Z,81.05
2023-01-31T20:45:35.746Z,86.18
2023-01-31T20:53:42.765Z,57.53
2023-01-31T20:56:11.545Z,59.08
2023-01-31T20:58:43.546Z,69.15
2023-01-31T21:01:12.767Z,71.35
2023-01-31T21:03:40.863Z,59.37
2023-01-31T21:06:09.385Z,58.08
2023-01-31T21:08:37.687Z,56.58
2023-01-31T21:16:04.566Z,64.88
2023-01-31T21:18:35.153Z,75.60
2023-01-31T21:21:07.640Z,86.72
2023-01-31T21:23:36.915Z,93.88
2023-01-31T21:26:07.978Z,70.93
2023-01-31T21:28:38.066Z,75.47
2023-01-31T21:31:10.082Z,71.07
2023-01-31T21:33:38.248Z,50.65
2023-01-31T21:36:12.005Z,53.67
2023-01-31T21:38:41.653Z,55.22
2023-01-31T21:41:29.461Z,56.63
2023-01-31T21:43:57.776Z,41.17
2023-01-31T21:46:26.922Z,37.47
2023-01-31T21:53:02.100Z,40.80
2023-01-31T21:55:29.935Z,34.08
2023-01-31T21:59:12.472Z,32.43
2023-01-31T22:10:42.442Z,31.90
2023-01-31T22:13:15.309Z,32.80
2023-01-31T22:15:44.030Z,30.97
2023-01-31T22:18:11.822Z,31.65
2023-01-31T22:20:40.046Z,33.67
2023-01-31T22:23:08.011Z,32.65
2023-01-31T22:30:16.521Z,41.17
2023-01-31T22:32:45.479Z,27.67
2023-01-31T22:36:29.611Z,26.42
2023-01-31T22:38:57.909Z,26.00
2023-01-31T22:41:25.740Z,27.55
2023-01-31T22:43:54.454Z,27.67
2023-01-31T22:46:29.360Z,41.75
2023-01-31T22:50:41.862Z,101.45
2023-01-31T22:53:11.728Z,77.07
2023-01-31T22:55:43.206Z,96.88
2023-01-31T22:58:11.290Z,33.37
2023-01-31T23:00:40.463Z,23.00
2023-01-31T23:03:08.871Z,23.83
2023-01-31T23:05:43.921Z,28.42
2023-01-31T23:13:02.122Z,32.07
2023-01-31T23:15:30.610Z,36.58
2023-01-31T23:17:58.453Z,40.53
2023-01-31T23:21:41.544Z,25.20
2023-01-31T23:24:36.898Z,27.75
2023-01-31T23:27:08.043Z,26.40
2023-01-31T23:29:35.736Z,28.33
2023-01-31T23:32:58.215Z,35.17
2023-01-31T23:35:25.953Z,25.60
2023-01-31T23:37:54.244Z,22.83
2023-01-31T23:40:26.408Z,23.67
2023-01-31T23:42:54.804Z,22.77
2023-01-31T23:45:22.532Z,24.70
2023-01-31T23:47:50.784Z,24.80
2023-01-31T23:50:18.782Z,24.50
2023-01-31T23:52:47.319Z,28.07
2023-01-31T23:55:15.323Z,30.92
2023-01-31T23:59:03.661Z,27.60
